createdAt,value
2023-01-04T00:02:11.133Z,3.13
2023-01-04T00:04:39.757Z,1.33
2023-01-04T00:07:08.169Z,1.60
2023-01-04T00:09:36.686Z,3.67
2023-01-04T00:12:05.603Z,1.90
2023-01-04T00:14:34.063Z,1.13
2023-01-04T00:17:02.540Z,1.20
2023-01-04T00:19:32.608Z,1.43
2023-01-04T00:22:01.142Z,1.50
2023-01-04T00:24:29.602Z,2.20
2023-01-04T00:26:58.110Z,1.20
2023-01-04T00:29:26.672Z,1.27
2023-01-04T00:31:55.236Z,1.97
2023-01-04T00:34:23.739Z,1.43
2023-01-04T00:36:53.748Z,1.97
2023-01-04T00:39:22.499Z,1.00
2023-01-04T00:42:01.660Z,1.33
2023-01-04T00:44:31.419Z,0.80
2023-01-04T00:47:00.395Z,1.00
2023-01-04T00:49:29.247Z,0.93
2023-01-04T00:51:59.540Z,1.40
2023-01-04T00:54:31.118Z,1.27
2023-01-04T00:56:59.650Z,1.20
2023-01-04T00:59:28.812Z,1.43
2023-01-04T01:01:57.353Z,1.33
2023-01-04T01:04:26.223Z,1.40
2023-01-04T01:06:54.813Z,1.20
2023-01-04T01:09:24.688Z,2.00
2023-01-04T01:11:54.004Z,2.07
2023-01-04T01:14:24.355Z,1.20
2023-01-04T01:16:56.443Z,1.57
2023-01-04T01:19:26.717Z,1.57
2023-01-04T01:21:57.144Z,2.17
2023-01-04T01:24:28.189Z,1.00
2023-01-04T01:26:57.161Z,1.73
2023-01-04T01:29:25.883Z,2.20
2023-01-04T01:31:55.543Z,1.10
2023-01-04T01:34:24.151Z,1.83
2023-01-04T01:36:52.632Z,1.00
2023-01-04T01:39:21.399Z,0.97
2023-01-04T01:41:51.285Z,1.97
2023-01-04T01:45:02.667Z,1.70
2023-01-04T01:47:39.025Z,1.40
2023-01-04T01:50:18.016Z,1.23
2023-01-04T01:52:46.711Z,2.50
2023-01-04T01:55:17.078Z,1.57
2023-01-04T01:57:50.630Z,1.30
2023-01-04T02:00:20.818Z,4.10
2023-01-04T02:02:59.056Z,1.00
2023-01-04T02:05:29.638Z,2.03
2023-01-04T02:07:58.167Z,0.63
2023-01-04T02:10:27.160Z,0.90
2023-01-04T02:12:57.029Z,1.63
2023-01-04T02:15:29.031Z,1.70
2023-01-04T02:18:07.468Z,0.70
2023-01-04T02:20:45.773Z,1.87
2023-01-04T02:24:02.379Z,0.73
2023-01-04T02:27:18.983Z,1.70
2023-01-04T02:30:23.490Z,1.20
2023-01-04T02:33:08.457Z,1.03
2023-01-04T02:35:46.005Z,2.60
2023-01-04T02:38:23.354Z,2.20
2023-01-04T02:41:02.067Z,0.90
2023-01-04T02:43:52.383Z,0.70
2023-01-04T02:46:27.597Z,1.90
2023-01-04T02:49:18.119Z,0.90
2023-01-04T02:51:46.582Z,1.33
2023-01-04T02:54:19.054Z,1.27
2023-01-04T02:57:05.555Z,0.50
2023-01-04T03:00:11.108Z,0.83
2023-01-04T03:03:29.839Z,2.40
2023-01-04T03:06:17.849Z,0.70
2023-01-04T03:08:58.011Z,0.90
2023-01-04T03:11:50.093Z,1.77
2023-01-04T03:14:31.515Z,1.33
2023-01-04T03:17:03.881Z,0.50
2023-01-04T03:19:55.043Z,1.27
2023-01-04T03:22:49.160Z,0.83
2023-01-04T03:25:40.855Z,0.80
2023-01-04T03:28:29.571Z,0.77
2023-01-04T03:31:20.804Z,1.27
2023-01-04T03:34:06.976Z,0.60
2023-01-04T03:36:53.055Z,0.70
2023-01-04T03:39:48.779Z,0.50
2023-01-04T03:42:41.072Z,0.70
2023-01-04T03:45:35.136Z,0.70
2023-01-04T03:48:30.667Z,0.70
2023-01-04T03:51:06.381Z,0.83
2023-01-04T03:53:40.741Z,0.67
2023-01-04T03:56:12.921Z,1.13
2023-01-04T03:58:41.687Z,0.83
2023-01-04T04:01:10.583Z,0.97
2023-01-04T04:03:56.938Z,0.87
2023-01-04T04:06:42.612Z,0.80
2023-01-04T04:09:11.071Z,0.60
2023-01-04T04:11:40.989Z,0.60
2023-01-04T04:14:09.435Z,0.97
2023-01-04T04:16:38.072Z,0.60
2023-01-04T04:19:09.810Z,0.60
2023-01-04T04:21:38.663Z,0.50
2023-01-04T04:24:08.050Z,0.80
2023-01-04T04:26:36.552Z,0.53
2023-01-04T04:29:06.471Z,0.40
2023-01-04T04:31:35.005Z,0.60
2023-01-04T04:34:03.523Z,0.77
2023-01-04T04:36:32.007Z,1.17
2023-01-04T04:39:00.710Z,0.50
2023-01-04T04:41:39.973Z,0.50
2023-01-04T04:44:11.327Z,1.20
2023-01-04T04:46:39.860Z,0.70
2023-01-04T04:49:09.275Z,0.63
2023-01-04T04:51:38.276Z,0.80
2023-01-04T04:54:09.185Z,0.73
2023-01-04T04:56:38.993Z,0.50
2023-01-04T04:59:09.320Z,1.93
2023-01-04T05:01:38.451Z,0.50
2023-01-04T05:04:07.028Z,1.63
2023-01-04T05:06:35.764Z,1.03
2023-01-04T05:09:04.336Z,0.57
2023-01-04T05:11:49.825Z,0.70
2023-01-04T05:14:19.776Z,0.53
2023-01-04T05:16:48.382Z,0.50
2023-01-04T05:19:16.984Z,0.80
2023-01-04T05:21:45.541Z,0.40
2023-01-04T05:24:14.491Z,0.60
2023-01-04T05:26:43.003Z,0.43
2023-01-04T05:29:31.529Z,0.93
2023-01-04T05:32:00.455Z,0.60
2023-01-04T05:34:28.943Z,0.50
2023-01-04T05:36:57.412Z,0.40
2023-01-04T05:39:25.923Z,0.80
2023-01-04T05:42:26.128Z,0.77
2023-01-04T05:44:54.942Z,0.43
2023-01-04T05:47:25.410Z,0.50
2023-01-04T05:49:54.251Z,0.50
2023-01-04T05:52:23.107Z,0.50
2023-01-04T05:54:51.737Z,0.50
2023-01-04T05:57:20.351Z,0.97
2023-01-04T05:59:48.942Z,1.17
2023-01-04T06:02:23.531Z,0.93
2023-01-04T06:04:58.756Z,0.60
2023-01-04T06:07:28.166Z,0.60
2023-01-04T06:09:56.753Z,0.50
2023-01-04T06:12:25.879Z,0.50
2023-01-04T06:14:54.535Z,0.63
2023-01-04T06:17:22.915Z,0.47
2023-01-04T06:19:51.531Z,0.50
2023-01-04T06:22:21.502Z,0.50
2023-01-04T06:24:50.187Z,0.50
2023-01-04T06:27:18.722Z,0.70
2023-01-04T06:29:47.162Z,0.57
2023-01-04T06:32:15.716Z,0.50
2023-01-04T06:34:44.338Z,0.60
2023-01-04T06:37:13.170Z,0.50
2023-01-04T06:39:43.168Z,0.50
2023-01-04T06:42:32.566Z,0.47
2023-01-04T06:45:01.027Z,0.60
2023-01-04T06:47:29.674Z,0.50
2023-01-04T06:49:58.276Z,0.60
2023-01-04T06:52:26.886Z,1.73
2023-01-04T06:54:56.744Z,0.50
2023-01-04T06:57:25.297Z,0.80
2023-01-04T06:59:53.791Z,0.40
2023-01-04T07:02:22.316Z,0.50
2023-01-04T07:04:50.915Z,0.83
2023-01-04T07:07:19.543Z,0.40
2023-01-04T07:09:48.141Z,0.70
2023-01-04T07:12:18.029Z,0.50
2023-01-04T07:14:46.507Z,0.50
2023-01-04T07:17:14.905Z,1.00
2023-01-04T07:19:43.388Z,0.60
2023-01-04T07:22:11.922Z,0.50
2023-01-04T07:24:40.611Z,0.50
2023-01-04T07:27:09.047Z,0.90
2023-01-04T07:29:39.535Z,0.50
2023-01-04T07:32:13.684Z,0.60
2023-01-04T07:34:43.340Z,0.40
2023-01-04T07:37:15.786Z,0.70
2023-01-04T07:39:45.045Z,0.50
2023-01-04T07:42:13.709Z,0.50
2023-01-04T07:44:44.841Z,0.50
2023-01-04T07:47:14.306Z,0.50
2023-01-04T07:49:42.908Z,0.70
2023-01-04T07:52:11.545Z,0.90
2023-01-04T07:54:40.072Z,0.50
2023-01-04T07:57:08.989Z,0.60
2023-01-04T07:59:38.047Z,0.53
2023-01-04T08:02:08.897Z,0.50
2023-01-04T08:04:37.997Z,0.40
2023-01-04T08:07:06.736Z,0.70
2023-01-04T08:09:35.417Z,0.43
2023-01-04T08:12:04.728Z,0.40
2023-01-04T08:14:33.111Z,0.50
2023-01-04T08:17:01.810Z,0.67
2023-01-04T08:19:32.422Z,0.70
2023-01-04T08:22:01.038Z,0.53
2023-01-04T08:24:32.840Z,0.80
2023-01-04T08:27:01.455Z,0.97
2023-01-04T08:29:34.775Z,0.50
2023-01-04T08:32:04.236Z,0.40
2023-01-04T08:34:34.227Z,0.40
2023-01-04T08:37:03.206Z,0.80
2023-01-04T08:39:36.023Z,0.60
2023-01-04T08:42:18.060Z,0.50
2023-01-04T08:44:51.046Z,0.63
2023-01-04T08:47:22.710Z,1.23
2023-01-04T08:49:52.701Z,0.50
2023-01-04T08:52:21.749Z,0.50
2023-01-04T08:54:50.447Z,0.40
2023-01-04T08:57:19.621Z,0.67
2023-01-04T08:59:48.432Z,0.50
2023-01-04T09:02:23.108Z,0.60
2023-01-04T09:04:54.263Z,0.60
2023-01-04T09:07:23.588Z,0.80
2023-01-04T09:09:52.297Z,0.60
2023-01-04T09:12:20.772Z,0.60
2023-01-04T09:14:49.412Z,0.50
2023-01-04T09:17:18.039Z,0.50
2023-01-04T09:19:46.630Z,0.50
2023-01-04T09:22:16.711Z,0.43
2023-01-04T09:24:45.368Z,1.97
2023-01-04T09:27:13.972Z,0.50
2023-01-04T09:29:42.628Z,0.50
2023-01-04T09:32:16.482Z,0.50
2023-01-04T09:34:46.338Z,0.50
2023-01-04T09:37:16.368Z,1.43
2023-01-04T09:39:45.817Z,0.50
2023-01-04T09:42:21.717Z,1.90
2023-01-04T09:47:47.217Z,0.60
2023-01-04T09:50:19.922Z,0.70
2023-01-04T09:53:03.563Z,0.60
2023-01-04T09:55:39.630Z,0.50
2023-01-04T09:58:27.015Z,0.70
2023-01-04T10:01:03.056Z,1.40
2023-01-04T10:03:33.723Z,1.10
2023-01-04T10:06:03.977Z,0.50
2023-01-04T10:08:34.380Z,0.70
2023-01-04T10:11:17.218Z,0.50
2023-01-04T10:13:59.531Z,1.03
2023-01-04T10:17:11.805Z,0.70
2023-01-04T10:22:42.866Z,0.50
2023-01-04T10:25:25.881Z,0.60
2023-01-04T10:28:05.584Z,0.50
2023-01-04T10:30:40.806Z,0.50
2023-01-04T10:33:14.479Z,0.40
2023-01-04T10:35:45.894Z,2.10
2023-01-04T10:38:18.910Z,0.47
2023-01-04T10:40:50.496Z,0.60
2023-01-04T10:43:28.699Z,1.73
2023-01-04T10:46:07.531Z,0.57
2023-01-04T10:48:44.830Z,1.00
2023-01-04T10:51:16.721Z,0.50
2023-01-04T10:53:49.545Z,0.60
2023-01-04T10:56:27.383Z,0.90
2023-01-04T10:59:04.563Z,0.50
2023-01-04T11:01:38.421Z,0.50
2023-01-04T11:04:14.483Z,0.50
2023-01-04T11:06:47.870Z,0.80
2023-01-04T11:09:25.188Z,0.77
2023-01-04T11:11:58.518Z,0.60
2023-01-04T11:14:35.060Z,0.67
2023-01-04T11:17:08.733Z,0.60
2023-01-04T11:19:37.820Z,1.27
2023-01-04T11:22:15.773Z,0.87
2023-01-04T11:25:00.675Z,0.70
2023-01-04T11:27:45.668Z,0.70
2023-01-04T11:30:20.118Z,1.43
2023-01-04T11:32:55.540Z,0.60
2023-01-04T11:35:44.963Z,0.97
2023-01-04T11:38:16.713Z,0.50
2023-01-04T11:40:57.988Z,0.50
2023-01-04T11:43:29.077Z,0.50
2023-01-04T11:46:03.970Z,0.50
2023-01-04T11:48:39.182Z,0.50
2023-01-04T11:51:18.038Z,0.53
2023-01-04T11:53:46.841Z,0.97
2023-01-04T11:56:21.555Z,1.27
2023-01-04T11:59:14.686Z,0.60
2023-01-04T12:01:51.820Z,0.50
2023-01-04T12:04:23.574Z,0.60
2023-01-04T12:06:56.918Z,0.60
2023-01-04T12:09:31.824Z,1.13
2023-01-04T12:12:01.959Z,0.50
2023-01-04T12:14:36.087Z,0.70
2023-01-04T12:17:08.846Z,1.07
2023-01-04T12:19:38.528Z,0.40
2023-01-04T12:22:19.096Z,0.53
2023-01-04T12:24:49.124Z,0.50
2023-01-04T12:27:18.665Z,0.60
2023-01-04T12:29:58.543Z,0.63
2023-01-04T12:32:47.161Z,0.40
2023-01-04T12:36:08.046Z,0.60
2023-01-04T12:39:29.416Z,0.60
2023-01-04T12:42:17.947Z,0.50
2023-01-04T12:45:19.441Z,0.50
2023-01-04T12:48:07.225Z,0.50
2023-01-04T12:51:31.587Z,0.63
2023-01-04T12:54:03.087Z,0.77
2023-01-04T12:57:09.272Z,0.57
2023-01-04T12:59:39.617Z,0.40
2023-01-04T13:02:20.427Z,0.50
2023-01-04T13:04:59.093Z,0.67
2023-01-04T13:07:45.123Z,0.87
2023-01-04T13:10:34.733Z,0.63
2023-01-04T13:13:24.167Z,0.50
2023-01-04T13:16:03.199Z,0.60
2023-01-04T13:18:39.160Z,1.37
2023-01-04T13:21:13.759Z,0.60
2023-01-04T13:23:48.132Z,0.53
2023-01-04T13:26:32.066Z,0.70
2023-01-04T13:29:16.073Z,0.57
2023-01-04T13:31:52.854Z,0.60
2023-01-04T13:34:25.969Z,0.50
2023-01-04T13:37:10.703Z,1.00
2023-01-04T13:39:42.491Z,0.50
2023-01-04T13:42:19.824Z,0.60
2023-01-04T13:45:22.717Z,0.70
2023-01-04T13:47:58.917Z,0.40
2023-01-04T13:50:33.652Z,0.60
2023-01-04T13:53:07.678Z,0.50
2023-01-04T13:55:39.047Z,0.47
2023-01-04T13:58:17.926Z,0.40
2023-01-04T14:00:48.218Z,0.70
2023-01-04T14:03:28.605Z,1.03
2023-01-04T14:06:13.533Z,0.47
2023-01-04T14:08:46.090Z,0.97
2023-01-04T14:11:40.182Z,0.50
2023-01-04T14:14:31.213Z,0.70
2023-01-04T14:17:21.708Z,0.47
2023-01-04T14:19:53.108Z,0.40
2023-01-04T14:22:41.392Z,0.40
2023-01-04T14:25:37.344Z,0.50
2023-01-04T14:28:41.876Z,0.40
2023-01-04T14:31:36.446Z,0.63
2023-01-04T14:34:12.982Z,0.50
2023-01-04T14:36:43.358Z,0.50
2023-01-04T14:39:28.093Z,0.70
2023-01-04T14:41:59.867Z,0.50
2023-01-04T14:44:31.710Z,0.60
2023-01-04T14:47:04.183Z,0.60
2023-01-04T14:49:34.232Z,0.53
2023-01-04T14:52:04.431Z,0.60
2023-01-04T14:54:35.436Z,0.47
2023-01-04T14:57:04.634Z,1.83
2023-01-04T14:59:33.695Z,0.40
2023-01-04T15:02:02.504Z,0.40
2023-01-04T15:04:31.069Z,0.77
2023-01-04T15:07:01.970Z,0.60
2023-01-04T15:09:32.351Z,0.60
2023-01-04T15:12:02.439Z,0.50
2023-01-04T15:14:32.009Z,0.50
2023-01-04T15:17:00.917Z,0.40
2023-01-04T15:19:35.655Z,0.50
2023-01-04T15:22:06.743Z,0.60
2023-01-04T15:24:35.865Z,0.90
2023-01-04T15:27:06.137Z,0.47
2023-01-04T15:29:35.653Z,0.50
2023-01-04T15:32:04.528Z,0.50
2023-01-04T15:34:33.528Z,0.50
2023-01-04T15:37:02.308Z,0.40
2023-01-04T15:39:31.236Z,0.60
2023-01-04T15:42:17.665Z,0.60
2023-01-04T15:44:47.996Z,0.60
2023-01-04T15:47:16.823Z,0.50
2023-01-04T15:49:45.306Z,0.50
2023-01-04T15:52:13.888Z,0.70
2023-01-04T15:54:42.810Z,0.40
2023-01-04T15:57:11.390Z,0.50
2023-01-04T15:59:40.111Z,0.50
2023-01-04T16:02:12.700Z,0.50
2023-01-04T16:04:41.735Z,0.47
2023-01-04T16:07:10.179Z,0.40
2023-01-04T16:09:38.786Z,0.50
2023-01-04T16:12:26.098Z,0.40
2023-01-04T16:14:54.611Z,0.60
2023-01-04T16:17:25.310Z,0.60
2023-01-04T16:19:53.975Z,0.40
2023-01-04T16:22:22.611Z,0.50
2023-01-04T16:27:39.619Z,0.50
2023-01-04T16:30:11.919Z,0.70
2023-01-04T16:32:45.660Z,0.40
2023-01-04T16:35:17.379Z,0.60
2023-01-04T16:37:47.706Z,0.67
2023-01-04T16:40:16.160Z,0.40
2023-01-04T16:42:50.811Z,0.60
2023-01-04T16:45:20.199Z,0.40
2023-01-04T16:47:51.365Z,0.50
2023-01-04T16:50:19.966Z,0.50
2023-01-04T16:52:48.475Z,0.70
2023-01-04T16:55:23.438Z,0.83
2023-01-04T16:57:52.428Z,0.63
2023-01-04T17:00:21.317Z,0.50
2023-01-04T17:02:51.369Z,0.60
2023-01-04T17:05:19.969Z,0.77
2023-01-04T17:07:48.609Z,0.60
2023-01-04T17:10:17.172Z,1.07
2023-01-04T17:12:48.145Z,1.27
2023-01-04T17:18:08.316Z,1.27
2023-01-04T17:20:37.998Z,1.80
2023-01-04T17:23:08.438Z,2.10
2023-01-04T17:25:37.001Z,1.13
2023-01-04T17:28:05.747Z,0.70
2023-01-04T17:30:34.518Z,1.27
2023-01-04T17:33:03.079Z,1.23
2023-01-04T17:35:33.051Z,1.83
2023-01-04T17:38:01.641Z,1.60
2023-01-04T17:40:30.637Z,3.03
2023-01-04T17:42:59.876Z,0.50
2023-01-04T17:45:28.783Z,1.27
2023-01-04T17:47:57.631Z,0.90
2023-01-04T17:50:26.146Z,2.10
2023-01-04T17:52:58.395Z,3.33
2023-01-04T17:55:26.974Z,2.57
2023-01-04T17:57:55.681Z,2.40
2023-01-04T18:00:24.316Z,1.13
2023-01-04T18:02:53.035Z,2.13
2023-01-04T18:05:21.437Z,0.67
2023-01-04T18:07:49.887Z,4.53
2023-01-04T18:10:26.955Z,2.60
2023-01-04T18:13:08.509Z,2.13
2023-01-04T18:15:43.882Z,2.97
2023-01-04T18:18:17.532Z,2.10
2023-01-04T18:20:49.231Z,1.10
2023-01-04T18:23:25.299Z,3.33
2023-01-04T18:25:56.132Z,2.50
2023-01-04T18:28:24.751Z,6.47
2023-01-04T18:30:53.416Z,2.10
2023-01-04T18:33:22.048Z,3.63
2023-01-04T18:35:50.684Z,2.20
2023-01-04T18:38:19.165Z,3.80
2023-01-04T18:40:47.927Z,2.50
2023-01-04T18:43:17.967Z,2.80
2023-01-04T18:45:46.589Z,3.50
2023-01-04T18:48:15.543Z,5.10
2023-01-04T18:50:44.066Z,2.97
2023-01-04T18:53:12.473Z,2.50
2023-01-04T18:55:41.157Z,4.20
2023-01-04T18:58:09.598Z,5.57
2023-01-04T19:00:39.493Z,2.10
2023-01-04T19:03:10.926Z,5.70
2023-01-04T19:05:42.367Z,3.33
2023-01-04T19:08:11.363Z,3.03
2023-01-04T19:10:39.878Z,3.27
2023-01-04T19:13:08.543Z,2.50
2023-01-04T19:15:42.762Z,5.90
2023-01-04T19:18:15.848Z,4.23
2023-01-04T19:20:44.614Z,4.47
2023-01-04T19:23:13.267Z,5.03
2023-01-04T19:25:42.091Z,6.70
2023-01-04T19:28:12.827Z,2.40
2023-01-04T19:30:43.625Z,7.37
2023-01-04T19:33:12.425Z,6.50
2023-01-04T19:35:42.339Z,4.67
2023-01-04T19:38:10.813Z,6.17
2023-01-04T19:40:39.829Z,4.00
2023-01-04T19:43:08.363Z,3.20
2023-01-04T19:45:38.922Z,9.07
2023-01-04T19:48:08.960Z,9.30
2023-01-04T19:50:37.342Z,3.07
2023-01-04T19:53:05.832Z,3.33
2023-01-04T19:55:34.370Z,4.23
2023-01-04T19:58:02.871Z,7.33
2023-01-04T20:00:31.371Z,4.63
2023-01-04T20:03:00.393Z,5.07
2023-01-04T20:05:30.488Z,2.73
2023-01-04T20:07:59.209Z,3.53
2023-01-04T20:10:27.663Z,3.87
2023-01-04T20:12:56.168Z,5.87
2023-01-04T20:15:24.645Z,4.07
2023-01-04T20:17:53.767Z,4.93
2023-01-04T20:20:22.252Z,5.10
2023-01-04T20:22:52.092Z,3.40
2023-01-04T20:25:20.831Z,3.50
2023-01-04T20:27:49.598Z,1.80
2023-01-04T20:30:19.045Z,5.57
2023-01-04T20:32:47.720Z,4.80
2023-01-04T20:35:16.285Z,6.00
2023-01-04T20:37:44.732Z,3.80
2023-01-04T20:40:14.863Z,4.07
2023-01-04T20:43:15.105Z,3.03
2023-01-04T20:45:44.217Z,5.87
2023-01-04T20:48:13.097Z,3.03
2023-01-04T20:50:42.205Z,4.57
2023-01-04T20:53:11.652Z,6.30
2023-01-04T20:55:42.430Z,3.37
2023-01-04T20:58:13.297Z,3.00
2023-01-04T21:00:46.793Z,2.47
2023-01-04T21:03:16.468Z,3.10
2023-01-04T21:05:46.208Z,2.93
2023-01-04T21:08:14.916Z,4.13
2023-01-04T21:10:45.067Z,3.67
2023-01-04T21:13:14.253Z,4.17
2023-01-04T21:15:43.041Z,2.20
2023-01-04T21:18:11.884Z,4.03
2023-01-04T21:20:42.164Z,3.57
2023-01-04T21:23:14.211Z,3.53
2023-01-04T21:25:44.501Z,5.40
2023-01-04T21:28:14.222Z,3.67
2023-01-04T21:30:44.627Z,2.13
2023-01-04T21:33:14.943Z,11.07
2023-01-04T21:35:43.973Z,3.77
2023-01-04T21:38:12.869Z,3.50
2023-01-04T21:40:42.574Z,6.83
2023-01-04T21:43:17.647Z,6.00
2023-01-04T21:45:46.569Z,4.70
2023-01-04T21:48:15.061Z,2.90
2023-01-04T21:50:43.635Z,4.00
2023-01-04T21:53:12.166Z,7.67
2023-01-04T21:55:40.803Z,4.37
2023-01-04T21:58:09.425Z,8.10
2023-01-04T22:00:40.310Z,3.60
2023-01-04T22:03:08.934Z,10.27
2023-01-04T22:05:37.515Z,3.73
2023-01-04T22:08:06.499Z,5.53
2023-01-04T22:10:34.970Z,3.50
2023-01-04T22:13:04.320Z,6.00
2023-01-04T22:15:33.255Z,5.53
2023-01-04T22:18:03.171Z,2.20
2023-01-04T22:20:31.791Z,3.50
2023-01-04T22:23:00.434Z,3.23
2023-01-04T22:25:28.970Z,2.23
2023-01-04T22:27:57.479Z,2.83
2023-01-04T22:30:25.967Z,4.40
2023-01-04T22:32:55.142Z,3.57
2023-01-04T22:35:25.151Z,2.50
2023-01-04T22:37:53.789Z,3.40
2023-01-04T22:40:22.536Z,3.33
2023-01-04T22:42:51.103Z,2.50
2023-01-04T22:45:19.618Z,3.50
2023-01-04T22:47:48.317Z,3.47
2023-01-04T22:50:17.048Z,7.07
2023-01-04T22:52:50.979Z,4.03
2023-01-04T22:55:20.408Z,2.00
2023-01-04T22:57:48.956Z,10.53
2023-01-04T23:00:17.788Z,2.40
2023-01-04T23:02:46.737Z,3.47
2023-01-04T23:05:15.345Z,3.20
2023-01-04T23:07:44.098Z,6.47
2023-01-04T23:10:14.203Z,3.20
2023-01-04T23:12:43.350Z,4.23
2023-01-04T23:15:13.064Z,2.20
2023-01-04T23:17:41.584Z,3.77
2023-01-04T23:20:20.095Z,5.10
2023-01-04T23:22:48.994Z,2.97
2023-01-04T23:25:19.200Z,2.40
2023-01-04T23:27:47.647Z,6.67
2023-01-04T23:30:16.826Z,2.10
2023-01-04T23:32:47.999Z,3.93
2023-01-04T23:35:17.212Z,3.80
2023-01-04T23:37:45.783Z,4.33
2023-01-04T23:40:14.369Z,3.43
2023-01-04T23:42:44.257Z,2.30
2023-01-04T23:45:12.790Z,4.10
2023-01-04T23:47:41.221Z,3.43
2023-01-04T23:50:10.471Z,3.80
2023-01-04T23:52:38.961Z,2.83
2023-01-04T23:55:08.011Z,4.27
2023-01-04T23:57:36.518Z,3.20
